Time,TemperatureF,DewpointF,PressureIn,WindDirection,WindDirectionDegrees,WindSpeedMPH,WindSpeedGustMPH,Humidity,HourlyPrecipIn,Conditions,Clouds,dailyrainin,SoftwareType,DateUTC
2013-03-18 00:00:00,37.9,34.9,29.75,SW,224,7.0,9.0,89,0.00,,,0.00,Wunderground v.1.15,2013-03-18 05:00:00,
2013-03-18 00:10:00,37.7,34.8,29.75,SW,226,8.0,11.0,89,0.00,,,0.00,Wunderground v.1.15,2013-03-18 05:10:00,
2013-03-18 00:15:00,37.6,34.9,29.75,WNW,293,8.0,11.0,90,0.00,,,0.00,Wunderground v.1.15,2013-03-18 05:15:00,
2013-03-18 00:25:00,37.3,34.6,29.76,West,263,9.0,9.0,90,0.00,,,0.00,Wunderground v.1.15,2013-03-18 05:25:00,
2013-03-18 00:35:00,37.1,34.4,29.75,SW,228,8.0,10.0,90,0.00,,,0.00,Wunderground v.1.15,2013-03-18 05:35:00,
2013-03-18 00:40:00,37.0,34.3,29.75,WSW,245,8.0,13.0,90,0.00,,,0.00,Wunderground v.1.15,2013-03-18 05:40:00,
2013-03-18 00:45:00,37.0,34.6,29.75,WSW,242,8.0,13.0,91,0.00,,,0.00,Wunderground v.1.15,2013-03-18 05:45:00,
2013-03-18 00:55:00,36.9,34.5,29.75,WSW,250,7.0,8.0,91,0.00,,,0.00,Wunderground v.1.15,2013-03-18 05:55:00,
2013-03-18 01:00:00,37.0,34.6,29.76,WSW,248,7.0,7.0,91,0.00,,,0.00,Wunderground v.1.15,2013-03-18 06:00:00,
2013-03-18 01:10:00,37.0,34.6,29.76,SW,217,5.0,14.0,91,0.00,,,0.00,Wunderground v.1.15,2013-03-18 06:10:00,
2013-03-18 01:15:00,37.2,34.5,29.76,WSW,258,8.0,14.0,90,0.00,,,0.00,Wunderground v.1.15,2013-03-18 06:15:00,
2013-03-18 01:25:00,37.3,34.6,29.76,SW,217,5.0,8.0,90,0.00,,,0.00,Wunderground v.1.15,2013-03-18 06:25:00,
2013-03-18 01:35:00,37.8,33.4,29.77,WNW,294,6.0,7.0,84,0.00,,,0.00,Wunderground v.1.15,2013-03-18 06:35:00,
2013-03-18 01:45:00,37.9,32.6,29.77,West,270,6.0,14.0,81,0.00,,,0.00,Wunderground v.1.15,2013-03-18 06:45:00,
2013-03-18 01:55:00,37.7,31.5,29.78,WSW,248,5.0,14.0,78,0.00,,,0.00,Wunderground v.1.15,2013-03-18 06:55:00,
2013-03-18 02:00:00,37.5,30.9,29.78,WNW,288,6.0,14.0,77,0.00,,,0.00,Wunderground v.1.15,2013-03-18 07:00:00,
2013-03-18 02:10:00,37.2,30.3,29.78,NW,321,5.0,5.0,76,0.00,,,0.00,Wunderground v.1.15,2013-03-18 07:10:00,
2013-03-18 02:15:00,37.0,30.1,29.78,West,260,4.0,14.0,76,0.00,,,0.00,Wunderground v.1.15,2013-03-18 07:15:00,
2013-03-18 02:25:00,36.5,30.0,29.79,WNW,284,5.0,14.0,77,0.00,,,0.00,Wunderground v.1.15,2013-03-18 07:25:00,
2013-03-18 02:35:00,36.3,29.8,29.80,WNW,295,4.0,14.0,77,0.00,,,0.00,Wunderground v.1.15,2013-03-18 07:35:00,
2013-03-18 02:45:00,36.3,29.8,29.80,WNW,290,4.0,14.0,77,0.00,,,0.00,Wunderground v.1.15,2013-03-18 07:45:00,
2013-03-18 02:55:00,36.3,29.1,29.81,NW,305,6.0,14.0,75,0.00,,,0.00,Wunderground v.1.15,2013-03-18 07:55:00,
2013-03-18 03:00:00,36.3,29.1,29.81,West,271,5.0,14.0,75,0.00,,,0.00,Wunderground v.1.15,2013-03-18 08:00:00,
2013-03-18 03:10:00,35.9,28.4,29.81,NW,304,6.0,6.0,74,0.00,,,0.00,Wunderground v.1.15,2013-03-18 08:10:00,
2013-03-18 03:15:00,35.4,28.3,29.81,WSW,252,5.0,14.0,75,0.00,,,0.00,Wunderground v.1.15,2013-03-18 08:15:00,
2013-03-18 03:25:00,35.2,27.7,29.81,WNW,283,5.0,14.0,74,0.00,,,0.00,Wunderground v.1.15,2013-03-18 08:25:00,
2013-03-18 03:35:00,35.0,26.9,29.82,NW,318,6.0,14.0,72,0.00,,,0.00,Wunderground v.1.15,2013-03-18 08:35:00,
2013-03-18 03:40:00,34.9,26.1,29.82,NW,304,6.0,6.0,70,0.00,,,0.00,Wunderground v.1.15,2013-03-18 08:40:00,
2013-03-18 03:45:00,34.8,26.0,29.82,NW,321,7.0,7.0,70,0.00,,,0.00,Wunderground v.1.15,2013-03-18 08:45:00,
2013-03-18 03:50:00,34.7,25.6,29.82,WNW,283,7.0,14.0,69,0.00,,,0.00,Wunderground v.1.15,2013-03-18 08:50:00,
2013-03-18 03:55:00,34.5,25.4,29.82,WNW,288,8.0,14.0,69,0.00,,,0.00,Wunderground v.1.15,2013-03-18 08:55:00,
2013-03-18 04:05:00,34.1,25.7,29.82,WNW,290,7.0,14.0,71,0.00,,,0.00,Wunderground v.1.15,2013-03-18 09:05:00,
2013-03-18 04:10:00,33.9,25.8,29.82,WNW,295,5.0,14.0,72,0.00,,,0.00,Wunderground v.1.15,2013-03-18 09:10:00,
2013-03-18 04:15:00,33.7,26.0,29.82,NW,306,5.0,14.0,73,0.00,,,0.00,Wunderground v.1.15,2013-03-18 09:15:00,
2013-03-18 04:25:00,33.5,24.4,29.82,NW,324,6.0,14.0,69,0.00,,,0.00,Wunderground v.1.15,2013-03-18 09:25:00,
2013-03-18 04:35:00,32.6,22.5,29.83,ENE,64,9.0,11.0,66,0.00,,,0.00,Wunderground v.1.15,2013-03-18 09:35:00,
2013-03-18 04:45:00,32.1,22.4,29.83,NW,318,8.0,14.0,67,0.00,,,0.00,Wunderground v.1.15,2013-03-18 09:45:00,
2013-03-18 04:55:00,31.4,17.9,29.84,WNW,290,7.0,11.0,57,0.00,,,0.00,Wunderground v.1.15,2013-03-18 09:55:00,
2013-03-18 05:05:00,30.5,17.1,29.86,NW,308,11.0,14.0,57,0.00,,,0.00,Wunderground v.1.15,2013-03-18 10:05:00,
2013-03-18 05:10:00,30.2,17.2,29.85,WNW,297,10.0,14.0,58,0.00,,,0.00,Wunderground v.1.15,2013-03-18 10:10:00,
2013-03-18 05:20:00,29.9,17.7,29.86,WNW,295,10.0,14.0,60,0.00,,,0.00,Wunderground v.1.15,2013-03-18 10:20:00,
2013-03-18 05:30:00,29.9,18.5,29.86,NW,307,9.0,9.0,62,0.00,,,0.00,Wunderground v.1.15,2013-03-18 10:30:00,
2013-03-18 05:35:00,29.7,17.5,29.86,NNW,329,8.0,15.0,60,0.00,,,0.00,Wunderground v.1.15,2013-03-18 10:35:00,
2013-03-18 05:45:00,29.1,16.5,29.86,WNW,295,9.0,14.0,59,0.00,,,0.00,Wunderground v.1.15,2013-03-18 10:45:00,
2013-03-18 05:55:00,28.5,16.7,29.86,WNW,298,8.0,14.0,61,0.00,,,0.00,Wunderground v.1.15,2013-03-18 10:55:00,
2013-03-18 06:00:00,28.3,16.9,29.87,West,278,7.0,9.0,62,0.00,,,0.00,Wunderground v.1.15,2013-03-18 11:00:00,
2013-03-18 06:10:00,28.2,16.8,29.87,WNW,302,7.0,7.0,62,0.00,,,0.00,Wunderground v.1.15,2013-03-18 11:10:00,
2013-03-18 06:15:00,28.3,16.6,29.87,NW,306,7.0,7.0,61,0.00,,,0.00,Wunderground v.1.15,2013-03-18 11:15:00,
2013-03-18 06:20:00,28.2,16.1,29.87,NW,304,7.0,10.0,60,0.00,,,0.00,Wunderground v.1.15,2013-03-18 11:20:00,
2013-03-18 06:25:00,28.1,15.6,29.87,WNW,290,7.0,10.0,59,0.00,,,0.00,Wunderground v.1.15,2013-03-18 11:25:00,
2013-03-18 06:35:00,27.8,14.9,29.87,NW,308,9.0,11.0,58,0.00,,,0.00,Wunderground v.1.15,2013-03-18 11:35:00,
2013-03-18 06:40:00,27.7,14.8,29.88,WNW,302,9.0,9.0,58,0.00,,,0.00,Wunderground v.1.15,2013-03-18 11:40:00,
2013-03-18 06:50:00,27.3,14.8,29.88,NW,304,8.0,8.0,59,0.00,,,0.00,Wunderground v.1.15,2013-03-18 11:50:00,
2013-03-18 06:55:00,27.1,15.0,29.88,WNW,299,7.0,8.0,60,0.00,,,0.00,Wunderground v.1.15,2013-03-18 11:55:00,
2013-03-18 07:00:00,27.0,15.3,29.88,WNW,294,7.0,7.0,61,0.00,,,0.00,Wunderground v.1.15,2013-03-18 12:00:00,
2013-03-18 07:10:00,26.8,15.1,29.88,WNW,292,7.0,16.0,61,0.00,,,0.00,Wunderground v.1.15,2013-03-18 12:10:00,
2013-03-18 07:15:00,26.9,15.2,29.88,WNW,297,8.0,16.0,61,0.00,,,0.00,Wunderground v.1.15,2013-03-18 12:15:00,
2013-03-18 07:25:00,26.6,14.9,29.88,NW,309,9.0,16.0,61,0.00,,,0.00,Wunderground v.1.15,2013-03-18 12:25:00,
2013-03-18 07:30:00,26.4,15.1,29.88,NW,313,8.0,8.0,62,0.00,,,0.00,Wunderground v.1.15,2013-03-18 12:30:00,
2013-03-18 07:35:00,26.1,14.8,29.89,WNW,302,8.0,11.0,62,0.00,,,0.00,Wunderground v.1.15,2013-03-18 12:35:00,
2013-03-18 07:45:00,25.7,13.7,29.89,WNW,301,10.0,10.0,60,0.00,,,0.00,Wunderground v.1.15,2013-03-18 12:45:00,
2013-03-18 07:55:00,25.3,13.7,29.90,WNW,301,8.0,16.0,61,0.00,,,0.00,Wunderground v.1.15,2013-03-18 12:55:00,
2013-03-18 08:05:00,25.0,13.4,29.90,NNW,328,7.0,9.0,61,0.00,,,0.00,Wunderground v.1.15,2013-03-18 13:05:00,
2013-03-18 08:15:00,25.2,12.9,29.90,WNW,290,10.0,10.0,59,0.00,,,0.00,Wunderground v.1.15,2013-03-18 13:15:00,
2013-03-18 08:25:00,25.0,12.3,29.90,NW,308,11.0,16.0,58,0.00,,,0.00,Wunderground v.1.15,2013-03-18 13:25:00,
2013-03-18 08:35:00,24.6,13.1,29.90,NW,305,9.0,16.0,61,0.00,,,0.00,Wunderground v.1.15,2013-03-18 13:35:00,
2013-03-18 08:45:00,24.6,13.1,29.90,NNW,329,7.0,10.0,61,0.00,,,0.00,Wunderground v.1.15,2013-03-18 13:45:00,
2013-03-18 08:55:00,24.9,13.3,29.91,WNW,297,8.0,16.0,61,0.00,,,0.00,Wunderground v.1.15,2013-03-18 13:55:00,
2013-03-18 09:05:00,25.1,12.0,29.91,WNW,297,11.0,16.0,57,0.00,,,0.00,Wunderground v.1.15,2013-03-18 14:05:00,
2013-03-18 09:10:00,25.4,12.7,29.91,WNW,294,10.0,16.0,58,0.00,,,0.00,Wunderground v.1.15,2013-03-18 14:10:00,
2013-03-18 09:15:00,25.5,12.8,29.91,NW,321,8.0,16.0,58,0.00,,,0.00,Wunderground v.1.15,2013-03-18 14:15:00,
2013-03-18 09:20:00,25.6,12.5,29.91,NW,311,9.0,9.0,57,0.00,,,0.00,Wunderground v.1.15,2013-03-18 14:20:00,
2013-03-18 09:25:00,25.4,12.3,29.92,WNW,301,10.0,10.0,57,0.00,,,0.00,Wunderground v.1.15,2013-03-18 14:25:00,
2013-03-18 09:35:00,25.3,12.2,29.92,NW,304,9.0,16.0,57,0.00,,,0.00,Wunderground v.1.15,2013-03-18 14:35:00,
2013-03-18 09:45:00,25.0,11.9,29.93,NW,311,10.0,16.0,57,0.00,,,0.00,Wunderground v.1.15,2013-03-18 14:45:00,
2013-03-18 09:55:00,24.6,11.5,29.93,NW,309,11.0,16.0,57,0.00,,,0.00,Wunderground v.1.15,2013-03-18 14:55:00,
2013-03-18 10:00:00,24.6,11.5,29.93,NW,304,12.0,12.0,57,0.00,,,0.00,Wunderground v.1.15,2013-03-18 15:00:00,
2013-03-18 10:05:00,25.0,12.3,29.93,WNW,283,11.0,16.0,58,0.00,,,0.00,Wunderground v.1.15,2013-03-18 15:05:00,
2013-03-18 10:15:00,25.3,12.2,29.94,NNW,335,12.0,16.0,57,0.00,,,0.00,Wunderground v.1.15,2013-03-18 15:15:00,
2013-03-18 10:20:00,25.4,11.5,29.94,North,349,11.0,11.0,55,0.00,,,0.00,Wunderground v.1.15,2013-03-18 15:20:00,
2013-03-18 10:30:00,25.4,11.9,29.95,North,358,12.0,18.0,56,0.00,,,0.00,Wunderground v.1.15,2013-03-18 15:30:00,
2013-03-18 10:35:00,25.7,11.7,29.95,NW,315,11.0,18.0,55,0.00,,,0.00,Wunderground v.1.15,2013-03-18 15:35:00,
2013-03-18 10:45:00,25.8,11.8,29.95,NW,316,12.0,18.0,55,0.00,,,0.00,Wunderground v.1.15,2013-03-18 15:45:00,
2013-03-18 10:55:00,26.1,11.3,29.95,WNW,293,11.0,16.0,53,0.00,,,0.00,Wunderground v.1.15,2013-03-18 15:55:00,
2013-03-18 11:05:00,26.0,11.2,29.95,WNW,297,12.0,16.0,53,0.00,,,0.00,Wunderground v.1.15,2013-03-18 16:05:00,
2013-03-18 11:15:00,26.3,11.9,29.96,WNW,300,12.0,16.0,54,0.00,,,0.00,Wunderground v.1.15,2013-03-18 16:15:00,
2013-03-18 11:25:00,26.2,10.5,29.96,WNW,297,13.0,16.0,51,0.00,,,0.00,Wunderground v.1.15,2013-03-18 16:25:00,
2013-03-18 11:35:00,26.7,11.8,29.97,WNW,286,11.0,16.0,53,0.00,,,0.00,Wunderground v.1.15,2013-03-18 16:35:00,
2013-03-18 11:40:00,26.8,11.1,29.97,NW,307,11.0,11.0,51,0.00,,,0.00,Wunderground v.1.15,2013-03-18 16:40:00,
2013-03-18 11:50:00,26.4,10.7,29.97,West,262,12.0,12.0,51,0.00,,,0.00,Wunderground v.1.15,2013-03-18 16:50:00,
2013-03-18 12:00:00,26.6,10.9,29.98,NW,316,11.0,12.0,51,0.00,,,0.00,Wunderground v.1.15,2013-03-18 17:00:00,
2013-03-18 12:10:00,27.0,11.3,29.98,NW,311,11.0,11.0,51,0.00,,,0.00,Wunderground v.1.15,2013-03-18 17:10:00,
2013-03-18 12:15:00,26.8,10.2,29.98,NW,318,12.0,12.0,49,0.00,,,0.00,Wunderground v.1.15,2013-03-18 17:15:00,
2013-03-18 12:25:00,26.9,11.2,29.98,NW,312,11.0,12.0,51,0.00,,,0.00,Wunderground v.1.15,2013-03-18 17:25:00,
2013-03-18 12:35:00,27.6,10.9,29.98,NNW,341,10.0,13.0,49,0.00,,,0.00,Wunderground v.1.15,2013-03-18 17:35:00,
2013-03-18 12:45:00,27.8,11.1,29.99,WNW,291,11.0,25.0,49,0.00,,,0.00,Wunderground v.1.15,2013-03-18 17:45:00,
2013-03-18 12:50:00,28.1,11.8,29.98,WNW,291,10.0,10.0,50,0.00,,,0.00,Wunderground v.1.15,2013-03-18 17:50:00,
2013-03-18 13:00:00,28.1,11.4,29.99,WNW,297,11.0,11.0,49,0.00,,,0.00,Wunderground v.1.15,2013-03-18 18:00:00,
2013-03-18 13:05:00,28.3,11.6,29.99,NW,318,11.0,25.0,49,0.00,,,0.00,Wunderground v.1.15,2013-03-18 18:05:00,
2013-03-18 13:15:00,28.5,12.2,29.99,NW,312,10.0,11.0,50,0.00,,,0.00,Wunderground v.1.15,2013-03-18 18:15:00,
2013-03-18 13:25:00,29.2,11.4,29.99,NW,318,11.0,25.0,47,0.00,,,0.00,Wunderground v.1.15,2013-03-18 18:25:00,
2013-03-18 13:35:00,29.5,11.7,29.99,NNW,333,10.0,25.0,47,0.00,,,0.00,Wunderground v.1.15,2013-03-18 18:35:00,
2013-03-18 13:45:00,29.5,11.7,29.99,NW,304,11.0,13.0,47,0.00,,,0.00,Wunderground v.1.15,2013-03-18 18:45:00,
2013-03-18 13:55:00,30.1,11.8,29.99,North,357,9.0,25.0,46,0.00,,,0.00,Wunderground v.1.15,2013-03-18 18:55:00,
2013-03-18 14:00:00,30.4,12.1,29.99,NW,316,9.0,9.0,46,0.00,,,0.00,Wunderground v.1.15,2013-03-18 19:00:00,
2013-03-18 14:05:00,30.6,11.2,29.99,NW,305,10.0,11.0,44,0.00,,,0.00,Wunderground v.1.15,2013-03-18 19:05:00,
2013-03-18 14:15:00,31.0,11.6,29.99,NW,318,9.0,25.0,44,0.00,,,0.00,Wunderground v.1.15,2013-03-18 19:15:00,
2013-03-18 14:25:00,31.1,11.7,29.99,NW,309,10.0,25.0,44,0.00,,,0.00,Wunderground v.1.15,2013-03-18 19:25:00,
2013-03-18 14:35:00,31.6,12.2,29.99,West,281,9.0,10.0,44,0.00,,,0.00,Wunderground v.1.15,2013-03-18 19:35:00,
2013-03-18 14:45:00,31.2,11.3,29.99,WNW,298,10.0,18.0,43,0.00,,,0.00,Wunderground v.1.15,2013-03-18 19:45:00,
2013-03-18 14:55:00,30.9,11.5,29.99,WNW,300,11.0,25.0,44,0.00,,,0.00,Wunderground v.1.15,2013-03-18 19:55:00,
2013-03-18 15:00:00,31.3,12.4,29.98,NNW,333,10.0,25.0,45,0.00,,,0.00,Wunderground v.1.15,2013-03-18 20:00:00,
2013-03-18 15:05:00,31.4,12.0,29.98,NW,312,10.0,25.0,44,0.00,,,0.00,Wunderground v.1.15,2013-03-18 20:05:00,
2013-03-18 15:15:00,31.7,11.2,29.98,WNW,286,10.0,25.0,42,0.00,,,0.00,Wunderground v.1.15,2013-03-18 20:15:00,
2013-03-18 15:25:00,32.1,11.0,29.98,WNW,302,11.0,25.0,41,0.00,,,0.00,Wunderground v.1.15,2013-03-18 20:25:00,
2013-03-18 15:35:00,32.0,12.0,29.98,WNW,291,11.0,25.0,43,0.00,,,0.00,Wunderground v.1.15,2013-03-18 20:35:00,
2013-03-18 15:45:00,32.6,11.5,29.99,NW,305,11.0,25.0,41,0.00,,,0.00,Wunderground v.1.15,2013-03-18 20:45:00,
2013-03-18 15:55:00,33.1,12.5,29.99,WNW,284,10.0,25.0,42,0.00,,,0.00,Wunderground v.1.15,2013-03-18 20:55:00,
2013-03-18 16:05:00,32.9,12.3,29.99,WNW,288,10.0,25.0,42,0.00,,,0.00,Wunderground v.1.15,2013-03-18 21:05:00,
2013-03-18 16:15:00,33.7,12.5,29.99,WNW,298,10.0,25.0,41,0.00,,,0.00,Wunderground v.1.15,2013-03-18 21:15:00,
2013-03-18 16:25:00,34.0,12.7,29.99,NW,307,9.0,12.0,41,0.00,,,0.00,Wunderground v.1.15,2013-03-18 21:25:00,
2013-03-18 16:35:00,34.1,12.3,29.99,NW,314,9.0,25.0,40,0.00,,,0.00,Wunderground v.1.15,2013-03-18 21:35:00,
2013-03-18 16:45:00,34.1,12.3,29.99,WNW,288,10.0,25.0,40,0.00,,,0.00,Wunderground v.1.15,2013-03-18 21:45:00,
2013-03-18 16:55:00,34.7,12.8,29.99,WNW,302,9.0,13.0,40,0.00,,,0.00,Wunderground v.1.15,2013-03-18 21:55:00,
2013-03-18 17:00:00,35.0,12.5,29.99,WNW,287,9.0,25.0,39,0.00,,,0.00,Wunderground v.1.15,2013-03-18 22:00:00,
2013-03-18 17:05:00,35.0,11.9,29.99,NNW,332,9.0,25.0,38,0.00,,,0.00,Wunderground v.1.15,2013-03-18 22:05:00,
2013-03-18 17:15:00,35.0,11.9,30.00,NW,318,9.0,25.0,38,0.00,,,0.00,Wunderground v.1.15,2013-03-18 22:15:00,
2013-03-18 17:25:00,34.6,11.0,30.00,WNW,295,10.0,10.0,37,0.00,,,0.00,Wunderground v.1.15,2013-03-18 22:25:00,
2013-03-18 17:30:00,34.7,11.6,30.00,WNW,295,10.0,10.0,38,0.00,,,0.00,Wunderground v.1.15,2013-03-18 22:30:00,
2013-03-18 17:40:00,34.7,11.6,30.01,NW,308,9.0,25.0,38,0.00,,,0.00,Wunderground v.1.15,2013-03-18 22:40:00,
2013-03-18 17:45:00,34.8,11.1,30.01,WNW,298,10.0,25.0,37,0.00,,,0.00,Wunderground v.1.15,2013-03-18 22:45:00,
2013-03-18 17:55:00,35.1,11.4,30.01,NW,319,8.0,25.0,37,0.00,,,0.00,Wunderground v.1.15,2013-03-18 22:55:00,
2013-03-18 18:00:00,34.9,11.8,30.01,WNW,300,8.0,10.0,38,0.00,,,0.00,Wunderground v.1.15,2013-03-18 23:00:00,
2013-03-18 18:10:00,34.7,11.6,30.01,NW,315,8.0,9.0,38,0.00,,,0.00,Wunderground v.1.15,2013-03-18 23:10:00,
2013-03-18 18:15:00,35.0,11.9,30.01,WNW,290,7.0,9.0,38,0.00,,,0.00,Wunderground v.1.15,2013-03-18 23:15:00,
2013-03-18 18:25:00,34.7,11.0,30.02,NNW,347,7.0,11.0,37,0.00,,,0.00,Wunderground v.1.15,2013-03-18 23:25:00,
2013-03-18 18:35:00,34.3,10.7,30.02,WNW,298,9.0,9.0,37,0.00,,,0.00,Wunderground v.1.15,2013-03-18 23:35:00,
2013-03-18 18:45:00,34.1,11.1,30.02,NNW,348,8.0,8.0,38,0.00,,,0.00,Wunderground v.1.15,2013-03-18 23:45:00,
2013-03-18 18:55:00,33.8,9.6,30.03,WNW,300,7.0,10.0,36,0.00,,,0.00,Wunderground v.1.15,2013-03-18 23:55:00,
2013-03-18 19:05:00,33.5,10.6,30.03,NW,308,7.0,18.0,38,0.00,,,0.00,Wunderground v.1.15,2013-03-19 00:05:00,
2013-03-18 19:15:00,33.4,10.5,30.04,NW,314,7.0,18.0,38,0.00,,,0.00,Wunderground v.1.15,2013-03-19 00:15:00,
2013-03-18 19:25:00,33.1,10.8,30.05,NW,307,7.0,18.0,39,0.00,,,0.00,Wunderground v.1.15,2013-03-19 00:25:00,
2013-03-18 19:35:00,32.6,10.9,30.05,NW,315,6.0,18.0,40,0.00,,,0.00,Wunderground v.1.15,2013-03-19 00:35:00,
2013-03-18 19:45:00,32.1,11.0,30.05,NW,323,5.0,18.0,41,0.00,,,0.00,Wunderground v.1.15,2013-03-19 00:45:00,
2013-03-18 19:50:00,31.7,11.2,30.05,WNW,295,4.0,4.0,42,0.00,,,0.00,Wunderground v.1.15,2013-03-19 00:50:00,
2013-03-18 20:00:00,31.2,11.3,30.05,NW,307,4.0,18.0,43,0.00,,,0.00,Wunderground v.1.15,2013-03-19 01:00:00,
2013-03-18 20:10:00,31.0,11.1,30.05,WNW,298,4.0,18.0,43,0.00,,,0.00,Wunderground v.1.15,2013-03-19 01:10:00,
2013-03-18 20:20:00,30.7,11.8,30.06,NNW,330,4.0,4.0,45,0.00,,,0.00,Wunderground v.1.15,2013-03-19 01:20:00,
2013-03-18 20:25:00,30.5,11.7,30.06,North,1,3.0,18.0,45,0.00,,,0.00,Wunderground v.1.15,2013-03-19 01:25:00,
2013-03-18 20:35:00,30.2,11.9,30.06,WNW,302,3.0,18.0,46,0.00,,,0.00,Wunderground v.1.15,2013-03-19 01:35:00,
2013-03-18 20:45:00,29.8,12.0,30.06,NW,318,2.0,18.0,47,0.00,,,0.00,Wunderground v.1.15,2013-03-19 01:45:00,
2013-03-18 20:55:00,29.6,12.3,30.06,North,351,2.0,18.0,48,0.00,,,0.00,Wunderground v.1.15,2013-03-19 01:55:00,
2013-03-18 21:00:00,29.4,12.1,30.05,North,6,1.0,18.0,48,0.00,,,0.00,Wunderground v.1.15,2013-03-19 02:00:00,
2013-03-18 21:10:00,29.0,12.7,30.04,NW,316,0.0,18.0,50,0.00,,,0.00,Wunderground v.1.15,2013-03-19 02:10:00,
2013-03-18 21:20:00,28.8,12.5,30.05,NW,309,1.0,18.0,50,0.00,,,0.00,Wunderground v.1.15,2013-03-19 02:20:00,
2013-03-18 21:25:00,28.7,12.4,30.05,North,351,1.0,18.0,50,0.00,,,0.00,Wunderground v.1.15,2013-03-19 02:25:00,
2013-03-18 21:35:00,28.4,12.6,30.05,NW,307,1.0,18.0,51,0.00,,,0.00,Wunderground v.1.15,2013-03-19 02:35:00,
2013-03-18 21:45:00,27.5,12.6,30.06,NW,311,0.0,18.0,53,0.00,,,0.00,Wunderground v.1.15,2013-03-19 02:45:00,
2013-03-18 21:55:00,27.1,13.1,30.07,SW,221,0.0,18.0,55,0.00,,,0.00,Wunderground v.1.15,2013-03-19 02:55:00,
2013-03-18 22:05:00,26.7,13.1,30.08,WSW,240,0.0,18.0,56,0.00,,,0.00,Wunderground v.1.15,2013-03-19 03:05:00,
2013-03-18 22:10:00,26.4,13.6,30.08,WSW,249,0.0,18.0,58,0.00,,,0.00,Wunderground v.1.15,2013-03-19 03:10:00,
2013-03-18 22:20:00,25.9,13.1,30.09,West,280,0.0,18.0,58,0.00,,,0.00,Wunderground v.1.15,2013-03-19 03:20:00,
2013-03-18 22:25:00,25.8,13.0,30.09,West,277,0.0,18.0,58,0.00,,,0.00,Wunderground v.1.15,2013-03-19 03:25:00,
2013-03-18 22:35:00,25.7,13.3,30.10,West,277,0.0,18.0,59,0.00,,,0.00,Wunderground v.1.15,2013-03-19 03:35:00,
2013-03-18 22:40:00,25.6,13.2,30.10,West,277,0.0,18.0,59,0.00,,,0.00,Wunderground v.1.15,2013-03-19 03:40:00,
2013-03-18 22:45:00,25.5,13.5,30.10,West,277,0.0,18.0,60,0.00,,,0.00,Wunderground v.1.15,2013-03-19 03:45:00,
2013-03-18 22:55:00,25.4,13.4,30.09,West,281,0.0,18.0,60,0.00,,,0.00,Wunderground v.1.15,2013-03-19 03:55:00,
2013-03-18 23:00:00,25.3,13.7,30.09,West,281,0.0,18.0,61,0.00,,,0.00,Wunderground v.1.15,2013-03-19 04:00:00,
2013-03-18 23:05:00,25.2,13.6,30.10,WNW,294,0.0,18.0,61,0.00,,,0.00,Wunderground v.1.15,2013-03-19 04:05:00,
2013-03-18 23:10:00,25.1,13.9,30.10,WNW,294,0.0,18.0,62,0.00,,,0.00,Wunderground v.1.15,2013-03-19 04:10:00,
2013-03-18 23:15:00,25.0,13.8,30.10,WNW,294,0.0,18.0,62,0.00,,,0.00,Wunderground v.1.15,2013-03-19 04:15:00,
2013-03-18 23:25:00,25.2,14.0,30.10,WNW,288,0.0,18.0,62,0.00,,,0.00,Wunderground v.1.15,2013-03-19 04:25:00,
2013-03-18 23:30:00,25.2,14.4,30.11,WNW,288,0.0,18.0,63,0.00,,,0.00,Wunderground v.1.15,2013-03-19 04:30:00,
2013-03-18 23:35:00,25.1,14.3,30.10,WNW,297,0.0,18.0,63,0.00,,,0.00,Wunderground v.1.15,2013-03-19 04:35:00,
2013-03-18 23:45:00,25.3,14.1,30.10,NW,311,1.0,18.0,62,0.00,,,0.00,Wunderground v.1.15,2013-03-19 04:45:00,
2013-03-18 23:55:00,25.3,14.5,30.10,WNW,284,0.0,18.0,63,0.00,,,0.00,Wunderground v.1.15,2013-03-19 04:55:00,